Time;durP1;ratioP1;P1;durP2;ratioP2;P2;SDS_P1;SDS_P2;PMS_P1;PMS_P2;Temp;Humidity;BMP_temperature;BMP_pressure;BME280_temperature;BME280_humidity;BME280_pressure;Samples;Min_cycle;Max_cycle;Signal;HPM_P1;HPM_P2
2021/08/06 00:01:12;;;;;;;4.03;1.02;;;17.90;74.70;;;;;;5043634;28;20037;-69
2021/08/06 00:03:56;;;;;;;1.52;1.00;;;17.80;74.80;;;;;;5043683;28;20036;-69
2021/08/06 00:06:40;;;;;;;3.22;1.42;;;17.80;75.00;;;;;;5042709;28;20300;-69
2021/08/06 00:09:24;;;;;;;3.85;1.20;;;17.90;75.20;;;;;;5042696;28;20028;-69
2021/08/06 00:12:09;;;;;;;2.97;1.30;;;17.90;75.30;;;;;;5044013;28;20028;-69
2021/08/06 00:14:53;;;;;;;1.85;1.08;;;17.80;75.70;;;;;;5042711;28;20040;-70
2021/08/06 00:17:37;;;;;;;2.35;1.13;;;17.90;75.80;;;;;;5043545;28;20387;-69
2021/08/06 00:20:21;;;;;;;2.13;1.10;;;18.00;75.80;;;;;;5044190;28;20028;-69
2021/08/06 00:23:05;;;;;;;3.35;1.15;;;17.90;75.90;;;;;;5042418;28;20260;-69
2021/08/06 00:25:49;;;;;;;2.22;1.25;;;17.80;76.10;;;;;;5043433;28;20076;-69
2021/08/06 00:28:34;;;;;;;1.85;1.10;;;17.80;76.40;;;;;;5047789;28;20352;-69
2021/08/06 00:31:18;;;;;;;3.15;1.10;;;17.80;76.10;;;;;;5047935;28;20198;-69
2021/08/06 00:34:02;;;;;;;3.13;1.20;;;17.80;76.20;;;;;;5047508;28;20029;-69
2021/08/06 00:36:46;;;;;;;2.42;1.02;;;17.80;76.20;;;;;;5047463;28;20028;-69
2021/08/06 00:39:31;;;;;;;3.08;1.30;;;17.80;76.20;;;;;;5047339;28;20052;-69
2021/08/06 00:42:15;;;;;;;1.85;1.13;;;17.90;76.20;;;;;;5047264;28;20071;-69
2021/08/06 00:44:59;;;;;;;3.60;1.05;;;17.80;76.30;;;;;;5047687;28;20028;-69
2021/08/06 00:47:44;;;;;;;3.45;1.10;;;17.80;76.10;;;;;;5047364;28;20297;-69
2021/08/06 00:50:28;;;;;;;3.42;1.20;;;17.90;75.80;;;;;;5046726;28;20368;-69
2021/08/06 00:53:12;;;;;;;2.30;1.05;;;17.90;75.80;;;;;;5047504;28;20039;-69
2021/08/06 00:55:56;;;;;;;2.08;1.40;;;17.90;75.70;;;;;;5046454;28;20220;-69
2021/08/06 00:58:40;;;;;;;2.72;1.25;;;17.90;75.80;;;;;;5047286;28;20183;-69
2021/08/06 01:01:25;;;;;;;3.92;1.40;;;17.90;75.70;;;;;;5032298;28;20151;-69
2021/08/06 01:04:29;;;;;;;2.40;1.30;;;17.90;75.50;;;;;;5045946;28;20043;-69
2021/08/06 01:07:23;;;;;;;4.40;1.40;;;18.00;75.20;;;;;;5046052;28;20048;-69
2021/08/06 01:10:08;;;;;;;4.53;1.42;;;17.90;75.10;;;;;;5032803;28;20097;-69
2021/08/06 01:12:58;;;;;;;1.80;1.05;;;17.90;75.30;;;;;;5045877;28;20048;-69
2021/08/06 01:15:43;;;;;;;2.13;1.10;;;17.90;75.20;;;;;;5046618;28;20045;-69
2021/08/06 01:18:27;;;;;;;3.00;1.20;;;17.90;75.20;;;;;;5045621;28;20101;-70
2021/08/06 01:21:16;;;;;;;2.03;1.30;;;17.90;75.00;;;;;;5046115;28;20116;-70
2021/08/06 01:24:01;;;;;;;2.65;1.40;;;17.90;74.80;;;;;;5031654;28;20081;-69
2021/08/06 01:26:45;;;;;;;2.15;1.35;;;17.80;74.60;;;;;;5031625;28;20028;-69
2021/08/06 01:29:29;;;;;;;2.58;1.25;;;17.80;74.40;;;;;;5046072;28;20033;-69
2021/08/06 01:32:13;;;;;;;2.17;1.30;;;17.80;74.40;;;;;;5046774;28;20032;-69
2021/08/06 01:34:58;;;;;;;3.28;1.38;;;17.80;74.10;;;;;;5046611;28;20040;-69
2021/08/06 01:37:42;;;;;;;1.95;1.20;;;17.70;74.00;;;;;;5046479;28;20064;-69
2021/08/06 01:40:26;;;;;;;2.40;1.40;;;17.70;74.10;;;;;;5045537;28;20036;-69
2021/08/06 01:43:21;;;;;;;1.70;1.10;;;17.60;74.10;;;;;;5045365;28;20281;-69
2021/08/06 01:46:09;;;;;;;1.95;1.35;;;17.70;73.70;;;;;;5031421;28;20071;-69
2021/08/06 01:49:01;;;;;;;2.55;1.20;;;17.60;73.80;;;;;;5045181;28;20090;-69
2021/08/06 01:51:55;;;;;;;1.90;1.10;;;17.60;73.70;;;;;;5031974;28;20347;-69
2021/08/06 01:54:39;;;;;;;1.88;1.25;;;17.50;73.70;;;;;;5045231;28;20056;-69
2021/08/06 01:57:23;;;;;;;1.95;1.17;;;17.50;73.60;;;;;;5031046;28;20032;-69
2021/08/06 02:00:07;;;;;;;2.13;1.30;;;17.60;73.40;;;;;;5045391;28;20025;-69
2021/08/06 02:02:51;;;;;;;2.78;1.48;;;17.50;73.40;;;;;;5045949;28;20448;-69
2021/08/06 02:05:36;;;;;;;2.33;1.42;;;17.50;73.50;;;;;;5045775;28;20085;-69
2021/08/06 02:08:20;;;;;;;1.48;1.00;;;17.40;73.50;;;;;;5046251;28;20456;-69
2021/08/06 02:11:05;;;;;;;2.85;1.30;;;17.40;73.40;;;;;;5045633;28;20068;-69
2021/08/06 02:13:50;;;;;;;2.38;1.10;;;17.40;73.40;;;;;;5045502;28;20028;-69
2021/08/06 02:16:34;;;;;;;2.08;1.35;;;17.30;73.50;;;;;;5045493;28;20048;-69
2021/08/06 02:19:21;;;;;;;3.50;1.23;;;17.30;73.70;;;;;;5044529;28;20063;-69
2021/08/06 02:22:06;;;;;;;3.05;1.20;;;17.30;73.60;;;;;;5045601;28;20090;-69
2021/08/06 02:24:50;;;;;;;2.90;1.38;;;17.30;73.80;;;;;;5045187;28;20044;-69
2021/08/06 02:27:34;;;;;;;1.88;1.20;;;17.20;73.80;;;;;;5045362;28;20032;-69
2021/08/06 02:30:18;;;;;;;3.85;1.38;;;17.20;73.70;;;;;;5044304;28;20025;-68
2021/08/06 02:33:03;;;;;;;3.40;1.30;;;17.20;73.60;;;;;;5030846;28;20056;-69
2021/08/06 02:35:47;;;;;;;2.15;1.00;;;17.30;73.40;;;;;;5030423;28;20041;-69
2021/08/06 02:38:31;;;;;;;1.65;1.00;;;17.30;73.20;;;;;;5045659;28;20204;-69
2021/08/06 02:41:15;;;;;;;1.77;1.30;;;17.30;73.30;;;;;;5045607;28;20028;-69
2021/08/06 02:43:59;;;;;;;2.08;1.10;;;17.20;73.50;;;;;;5044423;28;20056;-69
2021/08/06 02:46:43;;;;;;;1.95;1.30;;;17.10;73.70;;;;;;5044296;28;20136;-69
2021/08/06 02:49:31;;;;;;;2.47;1.23;;;17.10;73.70;;;;;;5044646;28;20040;-69
2021/08/06 02:52:15;;;;;;;1.70;1.23;;;17.00;73.70;;;;;;5045001;28;20072;-69
2021/08/06 02:55:00;;;;;;;4.32;1.95;;;16.90;74.00;;;;;;5044850;28;20268;-69
2021/08/06 02:57:44;;;;;;;1.70;1.00;;;16.90;74.10;;;;;;5044825;28;20048;-69
2021/08/06 03:00:28;;;;;;;1.58;1.02;;;16.90;74.40;;;;;;5044691;28;20079;-68
2021/08/06 03:03:13;;;;;;;2.30;1.20;;;16.90;74.40;;;;;;5045103;28;20037;-69
2021/08/06 03:05:57;;;;;;;3.78;1.25;;;16.80;74.70;;;;;;5044735;28;20143;-69
2021/08/06 03:08:41;;;;;;;1.83;1.20;;;16.80;74.60;;;;;;5044676;28;20213;-69
2021/08/06 03:11:25;;;;;;;2.20;1.30;;;16.80;74.60;;;;;;5044956;28;20033;-69
2021/08/06 03:14:10;;;;;;;1.73;1.10;;;16.90;74.60;;;;;;5044922;28;20075;-69
2021/08/06 03:16:54;;;;;;;2.38;1.00;;;16.80;74.40;;;;;;5044821;28;20205;-69
2021/08/06 03:19:38;;;;;;;4.40;1.35;;;16.80;74.40;;;;;;5044629;28;20032;-70
2021/08/06 03:22:22;;;;;;;1.83;1.17;;;16.80;74.40;;;;;;5044472;28;20075;-69
2021/08/06 03:25:08;;;;;;;2.53;1.25;;;16.80;74.40;;;;;;5044097;28;20045;-69
2021/08/06 03:27:54;;;;;;;2.33;1.20;;;16.80;74.30;;;;;;5044546;28;20358;-69
2021/08/06 03:30:38;;;;;;;1.65;1.17;;;16.70;74.40;;;;;;5044257;28;20033;-69
2021/08/06 03:33:23;;;;;;;2.85;1.23;;;16.70;74.40;;;;;;5044088;28;20033;-69
2021/08/06 03:36:07;;;;;;;1.92;1.35;;;16.70;74.30;;;;;;5044503;28;20028;-69
2021/08/06 03:38:51;;;;;;;5.30;1.38;;;16.70;74.30;;;;;;5044200;28;20036;-69
2021/08/06 03:41:35;;;;;;;2.08;1.13;;;16.70;74.20;;;;;;5044016;28;20033;-69
2021/08/06 03:44:20;;;;;;;2.78;1.20;;;16.80;74.20;;;;;;5044642;28;20048;-69
2021/08/06 03:47:04;;;;;;;2.90;1.13;;;16.60;74.20;;;;;;5044282;28;20093;-69
2021/08/06 03:49:48;;;;;;;2.40;1.15;;;16.60;74.30;;;;;;5044185;28;20196;-69
2021/08/06 03:52:33;;;;;;;3.63;1.10;;;16.50;74.50;;;;;;5043841;28;20328;-69
2021/08/06 03:55:17;;;;;;;2.05;1.20;;;16.60;74.30;;;;;;5043662;28;20356;-69
2021/08/06 03:58:02;;;;;;;4.00;1.25;;;16.70;74.30;;;;;;5043716;28;20036;-69
2021/08/06 04:00:47;;;;;;;1.77;1.02;;;16.60;74.60;;;;;;5043539;28;20212;-69
2021/08/06 04:03:31;;;;;;;3.13;1.38;;;16.60;74.70;;;;;;5043667;28;20048;-69
2021/08/06 04:06:15;;;;;;;3.97;1.40;;;16.70;74.60;;;;;;5043609;28;20029;-69
2021/08/06 04:09:00;;;;;;;3.97;1.63;;;16.70;74.60;;;;;;5044362;28;20093;-69
2021/08/06 04:11:44;;;;;;;3.15;1.33;;;16.70;74.60;;;;;;5043749;28;20340;-69
2021/08/06 04:14:28;;;;;;;4.05;1.20;;;16.60;74.80;;;;;;5043995;28;20055;-69
2021/08/06 04:17:12;;;;;;;4.30;1.58;;;16.70;74.80;;;;;;5043520;28;20035;-69
2021/08/06 04:19:57;;;;;;;2.45;1.40;;;16.70;74.80;;;;;;5043509;28;20032;-69
2021/08/06 04:22:41;;;;;;;2.47;1.48;;;16.60;75.00;;;;;;5043392;28;20025;-69
2021/08/06 04:25:25;;;;;;;2.45;1.33;;;16.60;75.20;;;;;;5043455;28;20064;-69
2021/08/06 04:28:10;;;;;;;2.25;1.38;;;16.70;75.30;;;;;;5043415;28;20248;-69
2021/08/06 04:30:54;;;;;;;1.95;1.30;;;16.70;75.40;;;;;;5043621;28;20024;-69
2021/08/06 04:33:38;;;;;;;2.38;1.58;;;16.70;75.50;;;;;;5043338;28;20064;-69
2021/08/06 04:36:22;;;;;;;1.60;1.10;;;16.70;75.80;;;;;;5043251;28;20259;-69
2021/08/06 04:39:07;;;;;;;2.30;1.30;;;16.80;76.00;;;;;;5043783;28;20355;-69
2021/08/06 04:41:51;;;;;;;5.88;1.30;;;16.80;76.10;;;;;;5043734;28;20037;-69
2021/08/06 04:44:36;;;;;;;2.00;1.17;;;16.80;76.10;;;;;;5043808;28;20032;-70
2021/08/06 04:47:21;;;;;;;2.70;1.42;;;16.80;76.10;;;;;;5043707;28;20102;-69
2021/08/06 04:50:05;;;;;;;3.63;1.50;;;16.80;76.30;;;;;;5043571;28;20084;-69
2021/08/06 04:52:49;;;;;;;3.75;1.50;;;16.90;76.10;;;;;;5043516;28;20113;-69
2021/08/06 04:55:34;;;;;;;4.70;1.17;;;17.00;76.10;;;;;;5042971;28;20037;-69
2021/08/06 04:58:18;;;;;;;4.00;1.42;;;17.00;76.10;;;;;;5043051;28;20040;-69
2021/08/06 05:01:02;;;;;;;5.03;1.50;;;17.10;76.20;;;;;;5043129;28;20087;-69
2021/08/06 05:03:46;;;;;;;3.08;1.20;;;17.10;76.10;;;;;;5043069;28;20063;-69
2021/08/06 05:06:31;;;;;;;2.58;1.20;;;17.10;76.30;;;;;;5042965;28;20143;-69
2021/08/06 05:09:15;;;;;;;1.90;1.30;;;17.10;76.30;;;;;;5043041;28;20092;-68
2021/08/06 05:11:59;;;;;;;5.25;2.00;;;17.20;76.20;;;;;;5043544;28;20032;-69
2021/08/06 05:14:44;;;;;;;4.05;1.45;;;17.20;76.50;;;;;;5045883;28;20048;-69
2021/08/06 05:17:28;;;;;;;2.85;1.35;;;17.20;76.70;;;;;;5047292;28;20067;-69
2021/08/06 05:20:13;;;;;;;5.18;1.30;;;17.20;76.70;;;;;;5046985;28;20025;-69
2021/08/06 05:22:57;;;;;;;4.20;1.48;;;17.30;76.60;;;;;;5046805;28;20089;-68
2021/08/06 05:25:41;;;;;;;1.98;1.23;;;17.30;76.40;;;;;;5046789;28;20379;-69
2021/08/06 05:28:25;;;;;;;1.77;1.20;;;17.30;76.40;;;;;;5046772;28;20048;-69
2021/08/06 05:31:10;;;;;;;2.90;1.75;;;17.30;75.90;;;;;;5046527;28;20025;-70
2021/08/06 05:33:54;;;;;;;2.03;1.35;;;17.40;76.20;;;;;;5046323;28;20024;-69
2021/08/06 05:36:38;;;;;;;2.90;1.52;;;17.40;76.20;;;;;;5046340;28;20152;-69
2021/08/06 05:39:22;;;;;;;2.85;1.45;;;17.40;76.10;;;;;;5046206;28;20036;-69
2021/08/06 05:42:07;;;;;;;8.27;1.85;;;17.50;75.90;;;;;;5046674;28;20088;-69
2021/08/06 05:44:51;;;;;;;4.75;1.60;;;17.50;76.10;;;;;;5046318;28;20075;-69
2021/08/06 05:47:46;;;;;;;5.25;1.50;;;17.60;76.30;;;;;;5046664;28;20036;-70
2021/08/06 05:50:36;;;;;;;3.78;1.42;;;17.60;76.40;;;;;;5046476;28;20407;-69
2021/08/06 05:53:21;;;;;;;4.07;1.50;;;17.70;76.30;;;;;;5046488;28;20041;-69
2021/08/06 05:56:05;;;;;;;4.15;1.70;;;17.70;76.10;;;;;;5046216;28;20367;-69
2021/08/06 05:58:50;;;;;;;2.25;1.40;;;17.70;75.90;;;;;;5045865;28;20090;-69
2021/08/06 06:01:34;;;;;;;3.10;1.38;;;17.70;75.90;;;;;;5045782;28;20228;-69
2021/08/06 06:04:18;;;;;;;2.22;1.30;;;17.80;76.10;;;;;;5045733;28;20113;-69
2021/08/06 06:07:03;;;;;;;2.40;1.38;;;17.80;76.00;;;;;;5044735;28;20021;-69
2021/08/06 06:09:47;;;;;;;2.17;1.30;;;17.70;75.80;;;;;;5045707;28;20038;-69
2021/08/06 06:12:31;;;;;;;3.78;1.42;;;17.80;75.90;;;;;;5045559;28;20064;-70
2021/08/06 06:15:15;;;;;;;4.07;1.75;;;17.80;76.00;;;;;;5045474;28;20097;-69
2021/08/06 06:18:00;;;;;;;2.53;1.20;;;17.80;75.70;;;;;;5045957;28;20060;-70
2021/08/06 06:20:43;;;;;;;3.03;1.48;;;17.80;75.40;;;;;;5045530;28;20036;-69
2021/08/06 06:23:28;;;;;;;2.45;1.58;;;17.90;75.60;;;;;;5045172;28;20083;-69
2021/08/06 06:26:12;;;;;;;3.50;1.13;;;18.00;75.80;;;;;;5044610;28;20336;-69
2021/08/06 06:28:57;;;;;;;2.13;1.40;;;18.10;75.90;;;;;;5045184;28;20052;-69
2021/08/06 06:31:41;;;;;;;2.25;1.25;;;18.10;75.90;;;;;;5045214;28;20351;-70
2021/08/06 06:34:25;;;;;;;1.95;1.23;;;18.20;75.60;;;;;;5045093;28;20037;-69
2021/08/06 06:37:09;;;;;;;2.42;1.30;;;18.20;75.10;;;;;;5045103;28;20024;-69
2021/08/06 06:39:54;;;;;;;3.88;1.75;;;18.30;74.80;;;;;;5045071;28;20048;-69
2021/08/06 06:42:38;;;;;;;1.92;1.27;;;18.30;74.70;;;;;;5045048;28;20083;-69
2021/08/06 06:45:22;;;;;;;3.50;1.35;;;18.30;74.80;;;;;;5044910;28;20232;-68
2021/08/06 06:48:07;;;;;;;2.10;1.40;;;18.30;74.40;;;;;;5045379;28;20064;-69
2021/08/06 06:50:52;;;;;;;2.80;1.30;;;18.30;74.20;;;;;;5045008;28;20088;-70
2021/08/06 06:53:36;;;;;;;1.73;1.10;;;18.30;73.90;;;;;;5044779;28;20045;-69
2021/08/06 06:56:20;;;;;;;2.63;1.33;;;18.40;73.70;;;;;;5045218;28;20044;-70
2021/08/06 06:59:05;;;;;;;4.57;1.40;;;18.40;73.90;;;;;;5029744;28;20035;-69
2021/08/06 07:01:49;;;;;;;2.10;1.20;;;18.40;73.90;;;;;;5044692;28;20233;-70
2021/08/06 07:04:33;;;;;;;4.65;1.27;;;18.50;73.80;;;;;;5044629;28;20351;-69
2021/08/06 07:07:17;;;;;;;1.77;1.20;;;18.60;73.60;;;;;;5044512;28;20075;-70
2021/08/06 07:10:02;;;;;;;2.95;1.30;;;18.50;74.20;;;;;;5044564;28;20044;-69
2021/08/06 07:12:47;;;;;;;1.80;1.30;;;18.40;74.10;;;;;;5044454;28;20221;-69
2021/08/06 07:15:31;;;;;;;2.65;1.40;;;18.40;75.50;;;;;;5043395;28;20393;-69
2021/08/06 07:18:15;;;;;;;2.03;1.15;;;18.40;75.60;;;;;;5044305;28;20205;-68
2021/08/06 07:21:01;;;;;;;2.60;1.30;;;18.40;75.30;;;;;;5044731;28;20032;-69
2021/08/06 07:23:45;;;;;;;3.83;1.50;;;18.40;75.60;;;;;;5044142;28;20060;-69
2021/08/06 07:26:30;;;;;;;5.05;1.40;;;18.40;75.80;;;;;;5044727;28;20367;-69
2021/08/06 07:29:14;;;;;;;5.95;1.58;;;18.50;75.70;;;;;;5044502;28;20024;-69
2021/08/06 07:31:58;;;;;;;4.95;1.73;;;18.40;75.80;;;;;;5044482;28;20048;-69
2021/08/06 07:34:43;;;;;;;3.97;1.52;;;18.40;76.10;;;;;;5044338;28;20035;-69
2021/08/06 07:37:27;;;;;;;2.35;1.30;;;18.40;76.10;;;;;;5043762;28;20132;-70
2021/08/06 07:40:12;;;;;;;3.83;1.70;;;18.40;75.90;;;;;;5044093;28;20028;-70
2021/08/06 07:42:56;;;;;;;5.28;1.83;;;18.40;76.00;;;;;;5044019;28;20044;-70
2021/08/06 07:45:43;;;;;;;3.67;1.48;;;18.50;76.30;;;;;;5044065;28;20297;-70
2021/08/06 07:48:27;;;;;;;3.85;1.60;;;18.50;76.40;;;;;;5042854;28;20028;-69
2021/08/06 07:51:11;;;;;;;3.22;1.50;;;18.40;76.30;;;;;;5044204;28;20067;-70
2021/08/06 07:53:55;;;;;;;2.45;1.60;;;18.50;76.60;;;;;;5042770;28;20028;-70
2021/08/06 07:56:39;;;;;;;4.75;1.80;;;18.40;76.80;;;;;;5043810;28;20041;-70
2021/08/06 07:59:23;;;;;;;3.42;1.98;;;18.50;76.80;;;;;;5043499;28;20052;-70
2021/08/06 08:02:08;;;;;;;6.18;1.60;;;18.50;76.90;;;;;;5044021;28;20029;-70
2021/08/06 08:04:52;;;;;;;3.20;1.70;;;18.50;77.40;;;;;;5043487;28;20371;-69
2021/08/06 08:07:36;;;;;;;3.25;1.88;;;18.50;77.60;;;;;;5043440;28;20071;-70
2021/08/06 08:10:21;;;;;;;2.40;1.60;;;18.60;77.50;;;;;;5043462;28;20089;-70
2021/08/06 08:13:05;;;;;;;2.58;1.42;;;18.60;77.60;;;;;;5043457;28;20031;-70
2021/08/06 08:15:50;;;;;;;4.38;1.70;;;18.60;77.50;;;;;;5043646;28;20205;-69
2021/08/06 08:18:34;;;;;;;3.17;1.70;;;18.70;77.60;;;;;;5043433;28;20032;-70
2021/08/06 08:21:18;;;;;;;3.03;1.60;;;18.70;77.70;;;;;;5043919;28;20059;-69
2021/08/06 08:24:03;;;;;;;4.13;2.17;;;18.70;78.00;;;;;;5043616;28;20071;-70
2021/08/06 08:26:47;;;;;;;2.75;1.63;;;18.70;77.80;;;;;;5043560;28;20041;-70
2021/08/06 08:29:31;;;;;;;5.35;1.92;;;18.70;77.70;;;;;;5043881;28;20083;-70
2021/08/06 08:32:16;;;;;;;5.15;1.80;;;18.80;77.70;;;;;;5042817;28;20032;-70
2021/08/06 08:35:00;;;;;;;5.50;1.70;;;18.80;77.60;;;;;;5043556;28;20044;-70
2021/08/06 08:37:44;;;;;;;3.75;1.73;;;18.80;77.70;;;;;;5043210;28;20036;-70
2021/08/06 08:40:29;;;;;;;5.18;2.10;;;18.80;77.60;;;;;;5043294;28;20036;-70
2021/08/06 08:43:13;;;;;;;3.60;1.80;;;18.90;77.60;;;;;;5043201;28;20079;-70
2021/08/06 08:45:57;;;;;;;3.95;2.05;;;18.90;77.60;;;;;;5043178;28;20040;-70
2021/08/06 08:48:41;;;;;;;4.47;2.08;;;18.90;78.20;;;;;;5044462;28;20231;-70
2021/08/06 08:51:26;;;;;;;3.15;1.50;;;19.00;78.40;;;;;;5046176;28;20029;-70
2021/08/06 08:54:10;;;;;;;3.80;1.58;;;19.10;78.00;;;;;;5048008;28;20284;-70
2021/08/06 08:56:54;;;;;;;3.20;1.50;;;19.00;77.80;;;;;;5047088;28;20340;-70
2021/08/06 08:59:38;;;;;;;3.13;1.70;;;19.10;77.60;;;;;;5047141;28;20044;-70
2021/08/06 09:02:26;;;;;;;6.30;1.95;;;19.20;77.60;;;;;;5046660;28;20212;-70
2021/08/06 09:05:11;;;;;;;2.88;1.50;;;19.20;77.40;;;;;;5046878;28;20037;-70
2021/08/06 09:07:56;;;;;;;3.25;1.48;;;19.20;77.60;;;;;;5046782;28;20036;-70
2021/08/06 09:10:40;;;;;;;8.40;1.38;;;19.30;77.50;;;;;;5046784;28;20040;-70
2021/08/06 09:13:25;;;;;;;2.13;1.25;;;19.40;77.60;;;;;;5046868;28;20052;-70
2021/08/06 09:16:09;;;;;;;4.00;1.30;;;19.40;77.20;;;;;;5046566;28;20040;-70
2021/08/06 09:18:53;;;;;;;2.20;1.23;;;19.60;77.70;;;;;;5031814;28;20031;-70
2021/08/06 09:21:37;;;;;;;1.92;1.10;;;19.60;77.20;;;;;;5046588;28;20205;-70
2021/08/06 09:24:22;;;;;;;3.05;1.40;;;19.70;77.00;;;;;;5046200;28;20106;-70
2021/08/06 09:27:09;;;;;;;2.90;1.50;;;19.90;77.20;;;;;;5046898;28;20041;-70
2021/08/06 09:29:53;;;;;;;4.35;2.13;;;20.00;76.30;;;;;;5031844;28;20037;-70
2021/08/06 09:32:54;;;;;;;2.53;1.55;;;20.10;76.10;;;;;;5046349;28;20029;-70
2021/08/06 09:35:38;;;;;;;2.53;1.35;;;20.20;74.70;;;;;;5046432;28;20109;-70
2021/08/06 09:38:22;;;;;;;2.80;1.55;;;20.30;74.80;;;;;;5046781;28;20109;-70
2021/08/06 09:41:06;;;;;;;2.20;1.35;;;20.30;74.20;;;;;;5046699;28;20029;-70
2021/08/06 09:44:13;;;;;;;3.13;1.30;;;20.50;73.90;;;;;;5046546;28;20423;-70
2021/08/06 09:46:58;;;;;;;3.28;1.30;;;20.50;72.60;;;;;;5046466;28;20356;-70
2021/08/06 09:49:44;;;;;;;3.50;1.30;;;20.50;72.50;;;;;;5045366;28;20209;-71
2021/08/06 09:52:36;;;;;;;3.33;1.20;;;20.50;72.20;;;;;;5045214;28;20035;-70
2021/08/06 09:55:25;;;;;;;2.70;1.40;;;20.60;72.10;;;;;;5030951;28;20043;-70
2021/08/06 09:58:14;;;;;;;3.63;1.40;;;20.70;70.90;;;;;;5045185;28;20036;-70
2021/08/06 10:01:03;;;;;;;3.40;1.20;;;20.70;70.70;;;;;;5045373;28;20304;-70
2021/08/06 10:03:47;;;;;;;5.55;1.38;;;20.80;71.00;;;;;;5045835;28;20205;-70
2021/08/06 10:06:32;;;;;;;3.25;1.30;;;20.90;70.90;;;;;;5045054;28;20067;-70
2021/08/06 10:09:16;;;;;;;2.65;1.25;;;21.00;70.30;;;;;;5045655;28;20020;-70
2021/08/06 10:12:01;;;;;;;3.45;1.50;;;21.00;69.60;;;;;;5046080;28;20128;-70
2021/08/06 10:14:45;;;;;;;2.70;1.42;;;21.10;69.30;;;;;;5045618;28;20232;-71
2021/08/06 10:17:29;;;;;;;4.72;2.30;;;21.20;69.10;;;;;;5046030;28;20148;-70
2021/08/06 10:20:15;;;;;;;2.95;1.80;;;21.20;68.90;;;;;;5045860;28;20097;-70
2021/08/06 10:23:00;;;;;;;2.38;1.30;;;21.30;68.90;;;;;;5044398;28;20056;-70
2021/08/06 10:25:43;;;;;;;2.95;1.45;;;21.30;68.90;;;;;;5045784;28;20040;-70
2021/08/06 10:28:31;;;;;;;2.50;1.45;;;21.30;68.30;;;;;;5045473;28;20032;-70
2021/08/06 10:31:19;;;;;;;2.05;1.10;;;21.40;68.80;;;;;;5044533;28;20124;-70
2021/08/06 10:34:11;;;;;;;4.70;1.73;;;21.40;69.00;;;;;;5045329;28;20068;-70
2021/08/06 10:36:55;;;;;;;4.38;1.50;;;21.40;68.50;;;;;;5045049;28;20032;-70
2021/08/06 10:39:41;;;;;;;3.25;1.33;;;21.50;68.90;;;;;;5045049;28;20200;-70
2021/08/06 10:42:29;;;;;;;12.57;1.80;;;21.50;67.90;;;;;;5044985;28;20419;-70
2021/08/06 10:45:13;;;;;;;3.60;1.40;;;21.60;67.80;;;;;;5043990;28;20351;-69
2021/08/06 10:47:58;;;;;;;2.17;1.15;;;21.80;66.90;;;;;;5045346;28;20028;-71
2021/08/06 10:50:41;;;;;;;2.95;1.20;;;21.90;66.30;;;;;;5044152;28;20104;-70
2021/08/06 10:53:25;;;;;;;2.25;1.10;;;22.00;65.40;;;;;;5044352;28;20240;-70
2021/08/06 10:56:21;;;;;;;2.80;1.23;;;22.00;64.50;;;;;;5045007;28;20352;-70
2021/08/06 10:59:11;;;;;;;2.95;1.40;;;22.00;63.50;;;;;;5044588;28;20040;-71
2021/08/06 11:01:56;;;;;;;;;;;22.00;63.00;;;;;;5044919;28;20040;-70
2021/08/06 11:04:43;;;;;;;2.35;1.40;;;22.10;61.20;;;;;;5047238;28;19991;-70
2021/08/06 11:07:32;;;;;;;3.58;1.52;;;22.20;63.10;;;;;;5044801;28;20136;-70
2021/08/06 11:10:51;;;;;;;2.65;1.20;;;22.30;62.00;;;;;;5044319;28;20033;-71
2021/08/06 11:13:51;;;;;;;3.22;1.38;;;22.30;60.60;;;;;;5043459;28;20029;-71
2021/08/06 11:16:40;;;;;;;2.40;1.20;;;22.40;60.70;;;;;;5044349;28;20279;-71
2021/08/06 11:19:54;;;;;;;3.67;1.40;;;22.50;60.20;;;;;;5029662;28;20259;-71
2021/08/06 11:22:43;;;;;;;2.42;1.05;;;22.70;59.00;;;;;;5044229;28;20055;-71
2021/08/06 11:25:27;;;;;;;4.22;1.27;;;22.80;60.20;;;;;;5044432;28;20049;-71
2021/08/06 11:28:11;;;;;;;2.35;1.10;;;22.90;59.10;;;;;;5044351;28;20032;-70
2021/08/06 11:30:56;;;;;;;2.92;1.17;;;23.10;57.80;;;;;;5043543;28;20040;-71
2021/08/06 11:33:40;;;;;;;2.33;1.10;;;23.20;57.40;;;;;;5044090;28;20197;-71
2021/08/06 11:36:24;;;;;;;2.85;1.15;;;23.30;57.60;;;;;;5043093;28;20048;-71
2021/08/06 11:39:13;;;;;;;4.03;1.10;;;23.40;57.30;;;;;;5044452;28;20059;-71
2021/08/06 11:41:57;;;;;;;4.22;1.30;;;23.50;58.40;;;;;;5044133;28;20308;-71
2021/08/06 11:44:55;;;;;;;2.63;1.45;;;23.60;57.20;;;;;;5044019;28;20343;-71
2021/08/06 11:47:50;;;;;;;2.30;1.08;;;23.70;55.10;;;;;;5043774;28;20360;-71
2021/08/06 11:50:42;;;;;;;3.03;1.20;;;23.80;55.20;;;;;;5044096;28;20049;-71
2021/08/06 11:53:27;;;;;;;3.33;1.75;;;23.80;55.20;;;;;;5029614;28;20037;-70
2021/08/06 11:56:15;;;;;;;2.38;1.00;;;23.80;53.90;;;;;;5044058;28;20052;-71
2021/08/06 11:58:59;;;;;;;6.00;1.30;;;23.90;55.10;;;;;;5043437;28;20079;-71
2021/08/06 12:01:44;;;;;;;5.30;1.55;;;24.00;54.40;;;;;;5028620;28;20032;-71
2021/08/06 12:04:28;;;;;;;4.35;1.13;;;24.10;54.40;;;;;;5043979;28;20339;-71
2021/08/06 12:07:12;;;;;;;2.20;1.00;;;24.20;53.80;;;;;;5043936;28;20041;-71
2021/08/06 12:09:56;;;;;;;3.65;1.17;;;24.20;52.30;;;;;;5043542;28;20066;-71
2021/08/06 12:12:40;;;;;;;5.55;1.30;;;24.30;52.60;;;;;;5042575;28;20048;-71
2021/08/06 12:15:26;;;;;;;3.25;1.20;;;24.30;52.50;;;;;;5043422;28;20120;-70
2021/08/06 12:18:14;;;;;;;4.95;1.92;;;24.30;51.50;;;;;;5043846;28;20032;-71
2021/08/06 12:21:00;;;;;;;3.33;1.10;;;24.40;52.20;;;;;;5043568;28;20217;-71
2021/08/06 12:23:51;;;;;;;2.35;1.35;;;24.50;52.80;;;;;;5045673;28;20110;-70
2021/08/06 12:26:35;;;;;;;3.92;1.33;;;24.50;52.10;;;;;;5047111;28;20039;-70
2021/08/06 12:29:29;;;;;;;4.70;1.52;;;24.60;52.30;;;;;;5047875;28;20140;-70
2021/08/06 12:32:14;;;;;;;2.28;1.13;;;24.70;51.40;;;;;;5047855;28;20032;-70
2021/08/06 12:34:58;;;;;;;7.03;1.20;;;24.70;51.70;;;;;;5047767;28;20064;-70
2021/08/06 12:37:42;;;;;;;4.57;1.25;;;24.70;51.80;;;;;;5047665;28;20071;-70
2021/08/06 12:40:41;;;;;;;2.50;1.08;;;24.70;52.00;;;;;;5047702;28;20024;-70
2021/08/06 12:43:26;;;;;;;4.15;1.38;;;24.70;50.90;;;;;;5047260;28;20105;-69
2021/08/06 12:46:11;;;;;;;2.45;1.17;;;24.70;50.90;;;;;;5047210;28;20025;-70
2021/08/06 12:49:06;;;;;;;1.95;1.10;;;24.80;51.70;;;;;;5047195;28;20032;-70
2021/08/06 12:51:56;;;;;;;2.67;1.35;;;24.80;50.60;;;;;;5047174;28;20028;-70
2021/08/06 12:54:55;;;;;;;6.22;1.40;;;25.00;50.90;;;;;;5046927;28;20099;-70
2021/08/06 12:57:44;;;;;;;4.55;1.13;;;25.10;50.10;;;;;;5047029;28;20082;-70
2021/08/06 13:00:35;;;;;;;2.05;1.10;;;25.10;50.50;;;;;;5047241;28;20068;-70
2021/08/06 13:03:23;;;;;;;2.35;0.90;;;25.10;48.80;;;;;;5046711;28;20028;-69
2021/08/06 13:06:07;;;;;;;2.75;1.00;;;25.10;50.30;;;;;;5047280;28;20307;-70
2021/08/06 13:08:52;;;;;;;4.05;1.30;;;25.20;49.90;;;;;;5046883;28;20343;-70
2021/08/06 13:11:36;;;;;;;4.95;1.30;;;25.20;49.50;;;;;;5046708;28;20075;-70
2021/08/06 13:14:20;;;;;;;2.47;1.10;;;25.30;50.20;;;;;;5046560;28;20028;-70
2021/08/06 13:17:05;;;;;;;3.80;1.00;;;25.30;50.50;;;;;;5046561;28;20033;-70
2021/08/06 13:19:49;;;;;;;4.10;1.15;;;25.30;49.30;;;;;;5046528;28;20040;-70
2021/08/06 13:22:33;;;;;;;3.95;1.10;;;25.30;48.40;;;;;;5046454;28;20036;-70
2021/08/06 13:25:19;;;;;;;3.20;0.90;;;25.30;48.60;;;;;;5046681;28;20417;-70
2021/08/06 13:28:06;;;;;;;5.53;0.93;;;25.30;47.60;;;;;;5046836;28;20028;-71
2021/08/06 13:30:51;;;;;;;5.78;1.10;;;25.30;48.60;;;;;;5046260;28;20031;-70
2021/08/06 13:33:35;;;;;;;2.60;1.10;;;25.30;48.40;;;;;;5046090;28;20041;-70
2021/08/06 13:36:19;;;;;;;3.60;1.10;;;25.40;48.70;;;;;;5045191;28;20040;-69
2021/08/06 13:39:03;;;;;;;4.47;1.00;;;25.40;49.00;;;;;;5046597;28;20375;-70
2021/08/06 13:41:47;;;;;;;2.22;1.05;;;25.40;46.60;;;;;;5046332;28;20036;-70
2021/08/06 13:44:32;;;;;;;2.90;0.98;;;25.40;48.70;;;;;;5046593;28;20096;-70
2021/08/06 13:47:16;;;;;;;3.38;1.10;;;25.40;47.90;;;;;;5044968;28;20118;-70
2021/08/06 13:50:00;;;;;;;3.75;1.20;;;25.30;48.80;;;;;;5045029;28;20140;-70
2021/08/06 13:52:45;;;;;;;2.75;1.30;;;25.30;49.20;;;;;;5045965;28;20037;-70
2021/08/06 13:55:29;;;;;;;9.85;2.28;;;25.30;49.50;;;;;;5045741;28;20063;-70
2021/08/06 13:58:13;;;;;;;3.45;1.10;;;25.30;49.80;;;;;;5045912;28;20087;-70
2021/08/06 14:00:59;;;;;;;4.32;1.33;;;25.10;49.40;;;;;;5045884;28;20033;-70
2021/08/06 14:03:43;;;;;;;4.82;1.35;;;25.10;49.20;;;;;;5045776;28;20220;-70
2021/08/06 14:06:28;;;;;;;3.22;1.00;;;25.10;48.60;;;;;;5044801;28;20048;-69
2021/08/06 14:09:12;;;;;;;2.33;0.93;;;25.00;48.70;;;;;;5046210;28;20450;-69
2021/08/06 14:11:56;;;;;;;5.80;1.15;;;25.00;48.60;;;;;;5042782;28;20083;-70
2021/08/06 14:14:40;;;;;;;3.65;1.00;;;24.90;48.20;;;;;;5045635;28;20037;-70
2021/08/06 14:17:25;;;;;;;5.07;1.30;;;24.90;48.60;;;;;;5046071;28;20080;-70
2021/08/06 14:20:10;;;;;;;3.42;1.00;;;24.80;47.70;;;;;;5045973;28;20035;-70
2021/08/06 14:22:54;;;;;;;4.03;1.20;;;24.80;47.50;;;;;;5045289;28;20265;-69